sensor_id;sensor_type;location;lat;lon;timestamp;temperature;humidity
15969;DHT22;8085;53.472;9.794;2022-07-05T00:00:16;16.70;1.00
15969;DHT22;8085;53.472;9.794;2022-07-05T00:02:43;16.70;1.00
15969;DHT22;8085;53.472;9.794;2022-07-05T00:05:10;16.70;1.00
15969;DHT22;8085;53.472;9.794;2022-07-05T00:07:39;16.50;1.00
15969;DHT22;8085;53.472;9.794;2022-07-05T00:10:06;16.40;1.00
15969;DHT22;8085;53.472;9.794;2022-07-05T00:12:33;16.50;1.00
15969;DHT22;8085;53.472;9.794;2022-07-05T00:15:01;16.50;1.00
15969;DHT22;8085;53.472;9.794;2022-07-05T00:17:27;16.40;1.00
15969;DHT22;8085;53.472;9.794;2022-07-05T00:19:55;16.30;1.00
15969;DHT22;8085;53.472;9.794;2022-07-05T00:22:21;16.20;1.00
15969;DHT22;8085;53.472;9.794;2022-07-05T00:24:50;16.10;1.00
15969;DHT22;8085;53.472;9.794;2022-07-05T00:27:17;16.10;1.00
15969;DHT22;8085;53.472;9.794;2022-07-05T00:29:45;16.20;1.00
15969;DHT22;8085;53.472;9.794;2022-07-05T00:32:12;16.20;1.00
15969;DHT22;8085;53.472;9.794;2022-07-05T00:34:39;16.10;1.00
15969;DHT22;8085;53.472;9.794;2022-07-05T00:37:06;16.00;1.00
15969;DHT22;8085;53.472;9.794;2022-07-05T00:39:33;15.90;1.00
15969;DHT22;8085;53.472;9.794;2022-07-05T00:42:02;15.80;1.00
15969;DHT22;8085;53.472;9.794;2022-07-05T00:44:30;15.70;1.00
15969;DHT22;8085;53.472;9.794;2022-07-05T00:46:58;15.70;1.00
15969;DHT22;8085;53.472;9.794;2022-07-05T00:49:25;15.70;1.00
15969;DHT22;8085;53.472;9.794;2022-07-05T00:51:52;15.80;1.00
15969;DHT22;8085;53.472;9.794;2022-07-05T00:54:19;15.90;1.00
15969;DHT22;8085;53.472;9.794;2022-07-05T00:56:46;16.00;1.00
15969;DHT22;8085;53.472;9.794;2022-07-05T00:59:15;15.80;1.00
15969;DHT22;8085;53.472;9.794;2022-07-05T01:01:42;15.70;1.00
15969;DHT22;8085;53.472;9.794;2022-07-05T01:04:10;15.70;1.00
15969;DHT22;8085;53.472;9.794;2022-07-05T01:06:37;15.60;1.00
15969;DHT22;8085;53.472;9.794;2022-07-05T01:09:05;15.50;1.00
15969;DHT22;8085;53.472;9.794;2022-07-05T01:11:32;15.50;1.00
15969;DHT22;8085;53.472;9.794;2022-07-05T01:13:59;15.50;1.00
15969;DHT22;8085;53.472;9.794;2022-07-05T01:16:27;15.60;1.00
15969;DHT22;8085;53.472;9.794;2022-07-05T01:18:55;15.60;1.00
15969;DHT22;8085;53.472;9.794;2022-07-05T01:21:23;15.60;1.00
15969;DHT22;8085;53.472;9.794;2022-07-05T01:23:53;15.60;1.00
15969;DHT22;8085;53.472;9.794;2022-07-05T01:26:20;15.50;1.00
15969;DHT22;8085;53.472;9.794;2022-07-05T01:28:47;15.40;1.00
15969;DHT22;8085;53.472;9.794;2022-07-05T01:31:14;15.30;1.00
15969;DHT22;8085;53.472;9.794;2022-07-05T01:33:41;15.20;1.00
15969;DHT22;8085;53.472;9.794;2022-07-05T01:36:10;15.20;1.00
15969;DHT22;8085;53.472;9.794;2022-07-05T01:38:38;15.20;1.00
15969;DHT22;8085;53.472;9.794;2022-07-05T01:41:08;15.20;1.00
15969;DHT22;8085;53.472;9.794;2022-07-05T01:43:35;15.20;1.00
15969;DHT22;8085;53.472;9.794;2022-07-05T01:46:04;15.20;1.00
15969;DHT22;8085;53.472;9.794;2022-07-05T01:48:33;15.00;1.00
15969;DHT22;8085;53.472;9.794;2022-07-05T01:51:04;14.90;1.00
15969;DHT22;8085;53.472;9.794;2022-07-05T01:53:33;15.00;1.00
15969;DHT22;8085;53.472;9.794;2022-07-05T01:56:01;15.00;1.00
15969;DHT22;8085;53.472;9.794;2022-07-05T01:58:30;15.00;1.00
15969;DHT22;8085;53.472;9.794;2022-07-05T02:00:58;15.00;1.00
15969;DHT22;8085;53.472;9.794;2022-07-05T02:03:27;14.90;1.00
15969;DHT22;8085;53.472;9.794;2022-07-05T02:05:53;15.00;1.00
15969;DHT22;8085;53.472;9.794;2022-07-05T02:08:21;14.90;1.00
15969;DHT22;8085;53.472;9.794;2022-07-05T02:10:47;14.80;1.00
15969;DHT22;8085;53.472;9.794;2022-07-05T02:13:14;14.80;1.00
15969;DHT22;8085;53.472;9.794;2022-07-05T02:15:43;14.90;1.00
15969;DHT22;8085;53.472;9.794;2022-07-05T02:18:10;14.90;1.00
15969;DHT22;8085;53.472;9.794;2022-07-05T02:20:38;14.90;1.00
15969;DHT22;8085;53.472;9.794;2022-07-05T02:23:06;14.90;1.00
15969;DHT22;8085;53.472;9.794;2022-07-05T02:25:34;14.90;1.00
15969;DHT22;8085;53.472;9.794;2022-07-05T02:28:01;14.90;1.00
15969;DHT22;8085;53.472;9.794;2022-07-05T02:30:28;14.90;1.00
15969;DHT22;8085;53.472;9.794;2022-07-05T02:32:57;14.80;1.00
15969;DHT22;8085;53.472;9.794;2022-07-05T02:35:24;14.80;1.00
15969;DHT22;8085;53.472;9.794;2022-07-05T02:37:51;14.70;1.00
15969;DHT22;8085;53.472;9.794;2022-07-05T02:40:18;14.50;1.00
15969;DHT22;8085;53.472;9.794;2022-07-05T02:42:44;14.40;17.40
15969;DHT22;8085;53.472;9.794;2022-07-05T02:45:11;14.50;11.80
15969;DHT22;8085;53.472;9.794;2022-07-05T02:47:38;14.70;9.60
15969;DHT22;8085;53.472;9.794;2022-07-05T02:50:08;14.70;1.00
15969;DHT22;8085;53.472;9.794;2022-07-05T02:52:36;14.60;1.00
15969;DHT22;8085;53.472;9.794;2022-07-05T02:55:04;14.60;1.00
15969;DHT22;8085;53.472;9.794;2022-07-05T02:57:31;14.70;1.00
15969;DHT22;8085;53.472;9.794;2022-07-05T02:59:58;14.70;1.00
15969;DHT22;8085;53.472;9.794;2022-07-05T03:02:25;14.50;1.00
15969;DHT22;8085;53.472;9.794;2022-07-05T03:04:52;14.70;1.00
15969;DHT22;8085;53.472;9.794;2022-07-05T03:07:20;14.60;1.00
15969;DHT22;8085;53.472;9.794;2022-07-05T03:09:47;14.60;1.00
15969;DHT22;8085;53.472;9.794;2022-07-05T03:12:14;14.50;1.00
15969;DHT22;8085;53.472;9.794;2022-07-05T03:14:41;14.40;1.00
15969;DHT22;8085;53.472;9.794;2022-07-05T03:17:08;14.30;9.30
15969;DHT22;8085;53.472;9.794;2022-07-05T03:19:35;14.30;11.90
15969;DHT22;8085;53.472;9.794;2022-07-05T03:22:03;14.10;25.70
15969;DHT22;8085;53.472;9.794;2022-07-05T03:24:31;14.10;29.90
15969;DHT22;8085;53.472;9.794;2022-07-05T03:26:58;14.20;22.80
15969;DHT22;8085;53.472;9.794;2022-07-05T03:29:25;14.10;33.30
15969;DHT22;8085;53.472;9.794;2022-07-05T03:31:52;14.10;22.60
15969;DHT22;8085;53.472;9.794;2022-07-05T03:34:19;14.10;32.20
15969;DHT22;8085;53.472;9.794;2022-07-05T03:36:46;14.20;27.00
15969;DHT22;8085;53.472;9.794;2022-07-05T03:39:13;14.00;32.90
15969;DHT22;8085;53.472;9.794;2022-07-05T03:41:41;14.00;38.90
15969;DHT22;8085;53.472;9.794;2022-07-05T03:44:08;14.10;34.80
15969;DHT22;8085;53.472;9.794;2022-07-05T03:46:35;14.10;27.40
15969;DHT22;8085;53.472;9.794;2022-07-05T03:49:02;13.90;46.20
15969;DHT22;8085;53.472;9.794;2022-07-05T03:51:29;14.00;50.50
15969;DHT22;8085;53.472;9.794;2022-07-05T03:53:56;14.10;31.40
15969;DHT22;8085;53.472;9.794;2022-07-05T03:56:22;14.00;38.10
15969;DHT22;8085;53.472;9.794;2022-07-05T03:58:51;14.10;38.90
15969;DHT22;8085;53.472;9.794;2022-07-05T04:01:18;14.20;40.20
15969;DHT22;8085;53.472;9.794;2022-07-05T04:03:45;14.40;21.30
15969;DHT22;8085;53.472;9.794;2022-07-05T04:06:12;14.30;11.20
15969;DHT22;8085;53.472;9.794;2022-07-05T04:08:39;14.20;29.90
15969;DHT22;8085;53.472;9.794;2022-07-05T04:11:06;14.10;40.20
15969;DHT22;8085;53.472;9.794;2022-07-05T04:13:34;14.20;38.30
15969;DHT22;8085;53.472;9.794;2022-07-05T04:16:03;14.10;40.40
15969;DHT22;8085;53.472;9.794;2022-07-05T04:18:30;14.10;38.10
15969;DHT22;8085;53.472;9.794;2022-07-05T04:20:57;14.10;41.30
15969;DHT22;8085;53.472;9.794;2022-07-05T04:23:24;14.10;38.50
15969;DHT22;8085;53.472;9.794;2022-07-05T04:25:51;14.20;30.80
15969;DHT22;8085;53.472;9.794;2022-07-05T04:28:18;14.30;30.30
15969;DHT22;8085;53.472;9.794;2022-07-05T04:30:45;14.20;38.80
15969;DHT22;8085;53.472;9.794;2022-07-05T04:33:13;14.30;38.20
15969;DHT22;8085;53.472;9.794;2022-07-05T04:35:40;14.40;28.90
15969;DHT22;8085;53.472;9.794;2022-07-05T04:38:07;14.40;25.20
15969;DHT22;8085;53.472;9.794;2022-07-05T04:40:34;14.40;25.00
15969;DHT22;8085;53.472;9.794;2022-07-05T04:43:01;14.30;39.00
15969;DHT22;8085;53.472;9.794;2022-07-05T04:45:28;14.30;30.10
15969;DHT22;8085;53.472;9.794;2022-07-05T04:47:54;14.20;37.60
15969;DHT22;8085;53.472;9.794;2022-07-05T04:50:23;14.20;41.70
15969;DHT22;8085;53.472;9.794;2022-07-05T04:52:50;14.20;36.50
15969;DHT22;8085;53.472;9.794;2022-07-05T04:55:17;14.30;38.40
15969;DHT22;8085;53.472;9.794;2022-07-05T04:57:44;14.40;43.80
15969;DHT22;8085;53.472;9.794;2022-07-05T05:00:12;14.50;31.00
15969;DHT22;8085;53.472;9.794;2022-07-05T05:02:41;14.50;29.20
15969;DHT22;8085;53.472;9.794;2022-07-05T05:05:08;14.50;25.80
15969;DHT22;8085;53.472;9.794;2022-07-05T05:07:37;14.50;30.80
15969;DHT22;8085;53.472;9.794;2022-07-05T05:10:08;14.60;23.60
15969;DHT22;8085;53.472;9.794;2022-07-05T05:12:35;14.50;26.40
15969;DHT22;8085;53.472;9.794;2022-07-05T05:15:02;14.70;27.70
15969;DHT22;8085;53.472;9.794;2022-07-05T05:17:35;14.80;13.70
15969;DHT22;8085;53.472;9.794;2022-07-05T05:20:04;14.80;11.30
15969;DHT22;8085;53.472;9.794;2022-07-05T05:22:31;14.70;9.50
15969;DHT22;8085;53.472;9.794;2022-07-05T05:25:00;14.80;11.70
15969;DHT22;8085;53.472;9.794;2022-07-05T05:27:27;14.90;5.90
15969;DHT22;8085;53.472;9.794;2022-07-05T05:29:54;15.00;1.00
15969;DHT22;8085;53.472;9.794;2022-07-05T05:32:20;15.00;1.00
15969;DHT22;8085;53.472;9.794;2022-07-05T05:34:49;15.00;1.00
15969;DHT22;8085;53.472;9.794;2022-07-05T05:37:20;15.20;1.00
15969;DHT22;8085;53.472;9.794;2022-07-05T05:39:47;15.20;1.00
15969;DHT22;8085;53.472;9.794;2022-07-05T05:42:16;15.30;1.00
15969;DHT22;8085;53.472;9.794;2022-07-05T05:44:43;15.40;1.00
15969;DHT22;8085;53.472;9.794;2022-07-05T05:47:10;15.40;1.00
15969;DHT22;8085;53.472;9.794;2022-07-05T05:49:37;15.50;1.00
15969;DHT22;8085;53.472;9.794;2022-07-05T05:52:04;15.70;1.00
15969;DHT22;8085;53.472;9.794;2022-07-05T05:54:31;15.90;1.00
15969;DHT22;8085;53.472;9.794;2022-07-05T05:56:58;16.00;1.00
15969;DHT22;8085;53.472;9.794;2022-07-05T05:59:26;16.10;1.00
15969;DHT22;8085;53.472;9.794;2022-07-05T06:01:53;16.10;1.00
15969;DHT22;8085;53.472;9.794;2022-07-05T06:04:20;16.30;1.00
15969;DHT22;8085;53.472;9.794;2022-07-05T06:06:47;16.20;1.00
15969;DHT22;8085;53.472;9.794;2022-07-05T06:09:13;16.30;1.00
15969;DHT22;8085;53.472;9.794;2022-07-05T06:11:40;16.30;1.00
15969;DHT22;8085;53.472;9.794;2022-07-05T06:14:07;16.40;1.00
15969;DHT22;8085;53.472;9.794;2022-07-05T06:16:35;16.60;1.00
15969;DHT22;8085;53.472;9.794;2022-07-05T06:19:02;16.70;1.00
15969;DHT22;8085;53.472;9.794;2022-07-05T06:21:29;16.90;1.00
15969;DHT22;8085;53.472;9.794;2022-07-05T06:23:56;17.20;1.00
15969;DHT22;8085;53.472;9.794;2022-07-05T06:26:23;17.40;1.00
15969;DHT22;8085;53.472;9.794;2022-07-05T06:28:50;17.50;1.00
15969;DHT22;8085;53.472;9.794;2022-07-05T06:31:17;17.50;1.00
15969;DHT22;8085;53.472;9.794;2022-07-05T06:33:45;17.50;1.00
15969;DHT22;8085;53.472;9.794;2022-07-05T06:36:15;17.50;1.00
15969;DHT22;8085;53.472;9.794;2022-07-05T06:38:42;17.60;1.00
15969;DHT22;8085;53.472;9.794;2022-07-05T06:41:09;17.70;1.00
15969;DHT22;8085;53.472;9.794;2022-07-05T06:43:35;17.80;1.00
15969;DHT22;8085;53.472;9.794;2022-07-05T06:46:02;17.90;1.00
15969;DHT22;8085;53.472;9.794;2022-07-05T06:48:29;17.80;1.00
15969;DHT22;8085;53.472;9.794;2022-07-05T06:50:58;17.60;1.00
15969;DHT22;8085;53.472;9.794;2022-07-05T06:53:24;17.50;1.00
15969;DHT22;8085;53.472;9.794;2022-07-05T06:55:55;17.40;1.00
15969;DHT22;8085;53.472;9.794;2022-07-05T06:58:23;17.40;1.00
15969;DHT22;8085;53.472;9.794;2022-07-05T07:00:50;17.40;1.00
15969;DHT22;8085;53.472;9.794;2022-07-05T07:03:19;17.50;1.00
15969;DHT22;8085;53.472;9.794;2022-07-05T07:05:46;17.40;1.00
15969;DHT22;8085;53.472;9.794;2022-07-05T07:08:16;17.60;1.00
15969;DHT22;8085;53.472;9.794;2022-07-05T07:11:00;17.80;1.00
15969;DHT22;8085;53.472;9.794;2022-07-05T07:13:29;18.10;1.00
15969;DHT22;8085;53.472;9.794;2022-07-05T07:15:56;18.50;99.90
15969;DHT22;8085;53.472;9.794;2022-07-05T07:18:23;18.70;99.90
15969;DHT22;8085;53.472;9.794;2022-07-05T07:20:50;18.70;25.40
15969;DHT22;8085;53.472;9.794;2022-07-05T07:23:21;18.80;1.00
15969;DHT22;8085;53.472;9.794;2022-07-05T07:25:56;18.80;1.00
15969;DHT22;8085;53.472;9.794;2022-07-05T07:28:23;19.20;1.00
15969;DHT22;8085;53.472;9.794;2022-07-05T07:30:51;19.30;1.00
15969;DHT22;8085;53.472;9.794;2022-07-05T07:33:18;19.50;1.00
15969;DHT22;8085;53.472;9.794;2022-07-05T07:35:45;19.70;1.00
15969;DHT22;8085;53.472;9.794;2022-07-05T07:38:19;19.60;1.00
15969;DHT22;8085;53.472;9.794;2022-07-05T07:40:47;19.60;1.00
15969;DHT22;8085;53.472;9.794;2022-07-05T07:43:14;19.60;1.00
15969;DHT22;8085;53.472;9.794;2022-07-05T07:45:42;19.80;74.20
15969;DHT22;8085;53.472;9.794;2022-07-05T07:48:09;19.90;99.90
15969;DHT22;8085;53.472;9.794;2022-07-05T07:50:37;20.20;99.90
15969;DHT22;8085;53.472;9.794;2022-07-05T07:53:04;20.50;1.00
15969;DHT22;8085;53.472;9.794;2022-07-05T07:55:32;20.50;1.00
15969;DHT22;8085;53.472;9.794;2022-07-05T07:57:59;20.50;1.00
15969;DHT22;8085;53.472;9.794;2022-07-05T08:00:27;20.40;1.00
15969;DHT22;8085;53.472;9.794;2022-07-05T08:02:55;20.40;99.90
15969;DHT22;8085;53.472;9.794;2022-07-05T08:05:28;20.50;99.90
15969;DHT22;8085;53.472;9.794;2022-07-05T08:07:58;20.70;99.90
15969;DHT22;8085;53.472;9.794;2022-07-05T08:10:27;20.90;99.90
15969;DHT22;8085;53.472;9.794;2022-07-05T08:12:55;21.20;1.00
15969;DHT22;8085;53.472;9.794;2022-07-05T08:15:22;21.10;1.00
15969;DHT22;8085;53.472;9.794;2022-07-05T08:17:49;20.90;1.00
15969;DHT22;8085;53.472;9.794;2022-07-05T08:20:34;21.10;1.00
15969;DHT22;8085;53.472;9.794;2022-07-05T08:23:26;21.20;1.00
15969;DHT22;8085;53.472;9.794;2022-07-05T08:25:54;21.20;1.00
15969;DHT22;8085;53.472;9.794;2022-07-05T08:28:23;21.10;1.00
15969;DHT22;8085;53.472;9.794;2022-07-05T08:30:53;21.30;25.80
15969;DHT22;8085;53.472;9.794;2022-07-05T08:33:22;21.50;1.00
15969;DHT22;8085;53.472;9.794;2022-07-05T08:35:54;21.30;1.00
15969;DHT22;8085;53.472;9.794;2022-07-05T08:38:40;21.40;1.00
15969;DHT22;8085;53.472;9.794;2022-07-05T08:41:08;21.20;1.00
15969;DHT22;8085;53.472;9.794;2022-07-05T08:43:40;21.30;99.90
15969;DHT22;8085;53.472;9.794;2022-07-05T08:46:32;21.70;99.90
15969;DHT22;8085;53.472;9.794;2022-07-05T08:49:04;21.50;99.90
15969;DHT22;8085;53.472;9.794;2022-07-05T08:51:33;21.30;99.90
15969;DHT22;8085;53.472;9.794;2022-07-05T08:54:02;21.00;99.90
15969;DHT22;8085;53.472;9.794;2022-07-05T08:56:31;20.80;68.80
15969;DHT22;8085;53.472;9.794;2022-07-05T08:59:06;20.80;99.90
15969;DHT22;8085;53.472;9.794;2022-07-05T09:01:33;20.60;99.90
15969;DHT22;8085;53.472;9.794;2022-07-05T09:04:04;20.40;99.90
15969;DHT22;8085;53.472;9.794;2022-07-05T09:06:34;20.30;99.90
15969;DHT22;8085;53.472;9.794;2022-07-05T09:09:06;20.30;99.90
15969;DHT22;8085;53.472;9.794;2022-07-05T09:11:36;20.10;99.90
15969;DHT22;8085;53.472;9.794;2022-07-05T09:14:06;20.10;99.90
15969;DHT22;8085;53.472;9.794;2022-07-05T09:16:36;20.30;99.90
15969;DHT22;8085;53.472;9.794;2022-07-05T09:19:07;20.50;99.90
15969;DHT22;8085;53.472;9.794;2022-07-05T09:21:34;20.60;99.90
15969;DHT22;8085;53.472;9.794;2022-07-05T09:24:03;20.50;99.90
15969;DHT22;8085;53.472;9.794;2022-07-05T09:26:34;20.50;99.90
15969;DHT22;8085;53.472;9.794;2022-07-05T09:29:03;20.80;99.90
15969;DHT22;8085;53.472;9.794;2022-07-05T09:32:08;21.00;99.90
15969;DHT22;8085;53.472;9.794;2022-07-05T09:34:38;21.80;82.90
15969;DHT22;8085;53.472;9.794;2022-07-05T09:37:05;22.20;1.00
15969;DHT22;8085;53.472;9.794;2022-07-05T09:39:39;21.70;1.00
15969;DHT22;8085;53.472;9.794;2022-07-05T09:42:15;21.40;1.00
15969;DHT22;8085;53.472;9.794;2022-07-05T09:44:46;21.10;1.00
15969;DHT22;8085;53.472;9.794;2022-07-05T09:47:19;21.00;1.00
15969;DHT22;8085;53.472;9.794;2022-07-05T09:49:47;20.90;1.00
15969;DHT22;8085;53.472;9.794;2022-07-05T09:52:29;21.20;1.00
15969;DHT22;8085;53.472;9.794;2022-07-05T09:55:06;21.70;7.50
15969;DHT22;8085;53.472;9.794;2022-07-05T09:57:47;22.40;1.00
15969;DHT22;8085;53.472;9.794;2022-07-05T10:00:17;22.50;1.00
15969;DHT22;8085;53.472;9.794;2022-07-05T10:02:51;22.70;1.00
15969;DHT22;8085;53.472;9.794;2022-07-05T10:05:44;23.00;1.00
15969;DHT22;8085;53.472;9.794;2022-07-05T10:08:16;22.40;1.00
15969;DHT22;8085;53.472;9.794;2022-07-05T10:11:07;22.30;1.00
15969;DHT22;8085;53.472;9.794;2022-07-05T10:13:50;22.50;1.00
15969;DHT22;8085;53.472;9.794;2022-07-05T10:16:18;22.80;1.00
15969;DHT22;8085;53.472;9.794;2022-07-05T10:18:47;22.90;1.00
15969;DHT22;8085;53.472;9.794;2022-07-05T10:21:18;23.20;1.00
15969;DHT22;8085;53.472;9.794;2022-07-05T10:23:46;23.50;1.00
15969;DHT22;8085;53.472;9.794;2022-07-05T10:26:15;23.60;1.00
15969;DHT22;8085;53.472;9.794;2022-07-05T10:28:46;23.20;1.00
15969;DHT22;8085;53.472;9.794;2022-07-05T10:31:15;23.00;1.00
15969;DHT22;8085;53.472;9.794;2022-07-05T10:33:42;23.10;1.00
15969;DHT22;8085;53.472;9.794;2022-07-05T10:36:12;23.20;1.00
15969;DHT22;8085;53.472;9.794;2022-07-05T10:38:42;23.40;1.00
15969;DHT22;8085;53.472;9.794;2022-07-05T10:41:11;23.60;1.00
15969;DHT22;8085;53.472;9.794;2022-07-05T10:43:39;23.50;1.00
15969;DHT22;8085;53.472;9.794;2022-07-05T10:46:06;23.30;1.00
15969;DHT22;8085;53.472;9.794;2022-07-05T10:48:34;23.40;1.00
15969;DHT22;8085;53.472;9.794;2022-07-05T10:51:15;23.60;1.00
15969;DHT22;8085;53.472;9.794;2022-07-05T10:54:02;23.60;1.00
15969;DHT22;8085;53.472;9.794;2022-07-05T10:56:29;23.50;1.00
15969;DHT22;8085;53.472;9.794;2022-07-05T10:59:04;23.50;1.00
15969;DHT22;8085;53.472;9.794;2022-07-05T11:01:37;23.40;1.00
15969;DHT22;8085;53.472;9.794;2022-07-05T11:04:32;23.00;1.00
15969;DHT22;8085;53.472;9.794;2022-07-05T11:07:03;22.60;1.00
15969;DHT22;8085;53.472;9.794;2022-07-05T11:09:30;22.60;1.00
15969;DHT22;8085;53.472;9.794;2022-07-05T11:12:06;23.00;1.00
15969;DHT22;8085;53.472;9.794;2022-07-05T11:14:35;22.50;1.00
15969;DHT22;8085;53.472;9.794;2022-07-05T11:17:15;22.50;1.00
15969;DHT22;8085;53.472;9.794;2022-07-05T11:20:10;22.30;1.00
15969;DHT22;8085;53.472;9.794;2022-07-05T11:22:40;22.30;1.00
15969;DHT22;8085;53.472;9.794;2022-07-05T11:25:10;22.40;1.00
15969;DHT22;8085;53.472;9.794;2022-07-05T11:31:01;22.90;1.00
15969;DHT22;8085;53.472;9.794;2022-07-05T11:33:33;23.10;1.00
15969;DHT22;8085;53.472;9.794;2022-07-05T11:36:01;23.60;1.00
15969;DHT22;8085;53.472;9.794;2022-07-05T11:38:29;23.50;1.00
15969;DHT22;8085;53.472;9.794;2022-07-05T11:41:10;23.50;1.00
15969;DHT22;8085;53.472;9.794;2022-07-05T11:43:38;23.40;1.00
15969;DHT22;8085;53.472;9.794;2022-07-05T11:46:08;23.40;1.00
15969;DHT22;8085;53.472;9.794;2022-07-05T11:48:35;23.60;1.00
15969;DHT22;8085;53.472;9.794;2022-07-05T11:51:13;23.20;1.00
15969;DHT22;8085;53.472;9.794;2022-07-05T11:53:40;23.90;1.00
15969;DHT22;8085;53.472;9.794;2022-07-05T11:56:08;23.90;1.00
15969;DHT22;8085;53.472;9.794;2022-07-05T11:58:35;23.70;1.00
15969;DHT22;8085;53.472;9.794;2022-07-05T12:01:02;24.00;1.00
15969;DHT22;8085;53.472;9.794;2022-07-05T12:03:32;24.20;1.00
15969;DHT22;8085;53.472;9.794;2022-07-05T12:06:09;24.00;1.00
15969;DHT22;8085;53.472;9.794;2022-07-05T12:08:37;23.50;1.00
15969;DHT22;8085;53.472;9.794;2022-07-05T12:11:04;23.60;1.00
15969;DHT22;8085;53.472;9.794;2022-07-05T12:13:51;23.40;1.00
15969;DHT22;8085;53.472;9.794;2022-07-05T12:16:18;23.30;1.00
15969;DHT22;8085;53.472;9.794;2022-07-05T12:18:51;23.00;1.00
15969;DHT22;8085;53.472;9.794;2022-07-05T12:21:20;23.00;1.00
15969;DHT22;8085;53.472;9.794;2022-07-05T12:23:48;23.50;1.00
15969;DHT22;8085;53.472;9.794;2022-07-05T12:26:18;23.60;1.00
15969;DHT22;8085;53.472;9.794;2022-07-05T12:28:45;24.00;1.00
15969;DHT22;8085;53.472;9.794;2022-07-05T12:31:19;23.80;1.00
15969;DHT22;8085;53.472;9.794;2022-07-05T12:33:47;23.70;1.00
15969;DHT22;8085;53.472;9.794;2022-07-05T12:36:17;24.10;1.00
15969;DHT22;8085;53.472;9.794;2022-07-05T12:38:45;24.70;99.90
15969;DHT22;8085;53.472;9.794;2022-07-05T12:41:21;24.30;99.90
15969;DHT22;8085;53.472;9.794;2022-07-05T12:43:50;23.70;99.90
15969;DHT22;8085;53.472;9.794;2022-07-05T12:46:17;23.40;1.00
15969;DHT22;8085;53.472;9.794;2022-07-05T12:48:44;23.50;1.00
15969;DHT22;8085;53.472;9.794;2022-07-05T12:51:12;23.60;1.00
15969;DHT22;8085;53.472;9.794;2022-07-05T12:53:48;23.50;1.00
15969;DHT22;8085;53.472;9.794;2022-07-05T12:56:32;24.30;1.00
15969;DHT22;8085;53.472;9.794;2022-07-05T12:59:16;24.20;99.90
15969;DHT22;8085;53.472;9.794;2022-07-05T13:01:44;24.10;99.90
15969;DHT22;8085;53.472;9.794;2022-07-05T13:04:12;24.40;99.90
15969;DHT22;8085;53.472;9.794;2022-07-05T13:06:41;24.40;99.90
15969;DHT22;8085;53.472;9.794;2022-07-05T13:09:09;24.30;99.90
15969;DHT22;8085;53.472;9.794;2022-07-05T13:11:36;24.10;99.90
15969;DHT22;8085;53.472;9.794;2022-07-05T13:14:03;24.30;99.90
15969;DHT22;8085;53.472;9.794;2022-07-05T13:16:30;24.00;99.90
15969;DHT22;8085;53.472;9.794;2022-07-05T13:19:06;23.60;99.90
15969;DHT22;8085;53.472;9.794;2022-07-05T13:21:33;23.10;99.90
15969;DHT22;8085;53.472;9.794;2022-07-05T13:24:01;23.00;99.90
15969;DHT22;8085;53.472;9.794;2022-07-05T13:26:29;22.70;1.00
15969;DHT22;8085;53.472;9.794;2022-07-05T13:28:56;22.70;1.00
15969;DHT22;8085;53.472;9.794;2022-07-05T13:31:23;22.60;1.00
15969;DHT22;8085;53.472;9.794;2022-07-05T13:33:50;22.10;1.00
15969;DHT22;8085;53.472;9.794;2022-07-05T13:36:17;22.00;1.00
15969;DHT22;8085;53.472;9.794;2022-07-05T13:38:44;21.70;97.20
15969;DHT22;8085;53.472;9.794;2022-07-05T13:41:10;21.50;1.00
15969;DHT22;8085;53.472;9.794;2022-07-05T13:43:39;21.40;1.00
15969;DHT22;8085;53.472;9.794;2022-07-05T13:46:06;21.30;10.80
15969;DHT22;8085;53.472;9.794;2022-07-05T13:48:33;21.50;1.00
15969;DHT22;8085;53.472;9.794;2022-07-05T13:51:00;21.90;1.00
15969;DHT22;8085;53.472;9.794;2022-07-05T13:53:26;22.50;99.90
15969;DHT22;8085;53.472;9.794;2022-07-05T13:55:53;22.80;1.00
15969;DHT22;8085;53.472;9.794;2022-07-05T13:58:20;22.80;99.90
15969;DHT22;8085;53.472;9.794;2022-07-05T14:00:49;22.40;99.90
15969;DHT22;8085;53.472;9.794;2022-07-05T14:03:16;22.10;1.00
15969;DHT22;8085;53.472;9.794;2022-07-05T14:05:43;21.90;1.00
15969;DHT22;8085;53.472;9.794;2022-07-05T14:08:10;21.80;1.00
15969;DHT22;8085;53.472;9.794;2022-07-05T14:10:38;21.90;99.90
15969;DHT22;8085;53.472;9.794;2022-07-05T14:13:05;22.00;1.00
15969;DHT22;8085;53.472;9.794;2022-07-05T14:15:32;22.30;99.90
15969;DHT22;8085;53.472;9.794;2022-07-05T14:18:00;22.60;1.00
15969;DHT22;8085;53.472;9.794;2022-07-05T14:20:28;22.70;1.00
15969;DHT22;8085;53.472;9.794;2022-07-05T14:22:55;22.90;7.10
15969;DHT22;8085;53.472;9.794;2022-07-05T14:25:22;22.90;99.90
15969;DHT22;8085;53.472;9.794;2022-07-05T14:27:51;22.80;1.00
15969;DHT22;8085;53.472;9.794;2022-07-05T14:30:18;23.20;1.00
15969;DHT22;8085;53.472;9.794;2022-07-05T14:32:45;23.10;22.20
15969;DHT22;8085;53.472;9.794;2022-07-05T14:35:13;23.10;99.90
15969;DHT22;8085;53.472;9.794;2022-07-05T14:37:40;23.30;69.90
15969;DHT22;8085;53.472;9.794;2022-07-05T14:40:08;23.40;36.60
15969;DHT22;8085;53.472;9.794;2022-07-05T14:42:35;23.50;99.90
15969;DHT22;8085;53.472;9.794;2022-07-05T14:45:03;23.30;83.00
15969;DHT22;8085;53.472;9.794;2022-07-05T14:47:30;23.10;99.90
15969;DHT22;8085;53.472;9.794;2022-07-05T14:49:56;22.90;99.90
15969;DHT22;8085;53.472;9.794;2022-07-05T14:52:25;22.70;1.00
15969;DHT22;8085;53.472;9.794;2022-07-05T14:54:54;22.80;99.90
15969;DHT22;8085;53.472;9.794;2022-07-05T14:57:21;23.10;43.30
15969;DHT22;8085;53.472;9.794;2022-07-05T14:59:49;23.20;25.50
15969;DHT22;8085;53.472;9.794;2022-07-05T15:02:16;23.20;1.00
15969;DHT22;8085;53.472;9.794;2022-07-05T15:04:43;23.00;1.00
15969;DHT22;8085;53.472;9.794;2022-07-05T15:07:11;22.40;1.70
15969;DHT22;8085;53.472;9.794;2022-07-05T15:09:39;22.20;1.00
15969;DHT22;8085;53.472;9.794;2022-07-05T15:12:06;22.30;1.00
15969;DHT22;8085;53.472;9.794;2022-07-05T15:14:33;22.50;99.90
15969;DHT22;8085;53.472;9.794;2022-07-05T15:17:00;22.60;1.00
15969;DHT22;8085;53.472;9.794;2022-07-05T15:19:27;22.40;1.00
15969;DHT22;8085;53.472;9.794;2022-07-05T15:21:54;22.30;1.00
15969;DHT22;8085;53.472;9.794;2022-07-05T15:24:21;22.70;99.90
15969;DHT22;8085;53.472;9.794;2022-07-05T15:26:49;22.80;99.90
15969;DHT22;8085;53.472;9.794;2022-07-05T15:29:16;22.80;1.00
15969;DHT22;8085;53.472;9.794;2022-07-05T15:31:43;22.70;77.10
15969;DHT22;8085;53.472;9.794;2022-07-05T15:34:10;22.70;1.00
15969;DHT22;8085;53.472;9.794;2022-07-05T15:36:38;22.70;1.00
15969;DHT22;8085;53.472;9.794;2022-07-05T15:39:06;22.40;99.90
15969;DHT22;8085;53.472;9.794;2022-07-05T15:41:42;21.80;1.00
15969;DHT22;8085;53.472;9.794;2022-07-05T15:44:14;21.80;99.90
15969;DHT22;8085;53.472;9.794;2022-07-05T15:46:43;21.60;99.90
15969;DHT22;8085;53.472;9.794;2022-07-05T15:49:29;21.50;1.00
15969;DHT22;8085;53.472;9.794;2022-07-05T15:51:57;21.60;1.00
15969;DHT22;8085;53.472;9.794;2022-07-05T15:54:24;21.80;1.00
15969;DHT22;8085;53.472;9.794;2022-07-05T15:57:17;21.70;99.90
15969;DHT22;8085;53.472;9.794;2022-07-05T16:00:22;21.70;99.90
15969;DHT22;8085;53.472;9.794;2022-07-05T16:03:05;21.70;1.00
15969;DHT22;8085;53.472;9.794;2022-07-05T16:06:22;21.60;1.00
15969;DHT22;8085;53.472;9.794;2022-07-05T16:09:13;21.80;1.00
15969;DHT22;8085;53.472;9.794;2022-07-05T16:11:55;21.70;1.00
15969;DHT22;8085;53.472;9.794;2022-07-05T16:14:23;21.60;1.00